createdAt,value
2018-03-11T00:02:25.141Z,98.90
2018-03-11T00:06:28.468Z,98.90
2018-03-11T00:10:32.040Z,99.00
2018-03-11T00:14:36.312Z,99.00
2018-03-11T00:18:39.666Z,98.90
2018-03-11T00:22:42.250Z,99.10
2018-03-11T00:26:45.537Z,99.60
2018-03-11T00:30:48.111Z,99.20
2018-03-11T00:34:50.654Z,98.70
2018-03-11T00:38:53.710Z,98.70
2018-03-11T00:42:57.038Z,99.20
2018-03-11T00:46:59.999Z,99.90
2018-03-11T00:51:03.288Z,99.90
2018-03-11T00:55:06.645Z,99.80
2018-03-11T00:59:09.172Z,99.50
2018-03-11T01:03:12.108Z,99.20
2018-03-11T01:07:15.070Z,99.20
2018-03-11T01:11:17.628Z,99.00
2018-03-11T01:15:20.911Z,99.10
2018-03-11T01:19:23.467Z,99.60
2018-03-11T01:23:26.750Z,99.40
2018-03-11T01:27:30.979Z,99.10
2018-03-11T01:31:34.277Z,99.00
2018-03-11T01:35:37.586Z,99.40
2018-03-11T01:39:40.155Z,99.40
2018-03-11T01:43:43.228Z,99.90
2018-03-11T01:47:46.159Z,99.90
2018-03-11T01:51:53.109Z,99.70
2018-03-11T01:55:56.016Z,99.70
2018-03-11T01:59:58.960Z,99.80
2018-03-11T02:04:01.468Z,99.60
2018-03-11T02:08:04.428Z,99.60
2018-03-11T02:12:07.340Z,99.60
2018-03-11T02:16:10.402Z,99.70
2018-03-11T02:20:13.756Z,99.90
2018-03-11T02:24:16.732Z,99.90
2018-03-11T02:28:20.022Z,99.90
2018-03-11T02:32:23.090Z,99.90
2018-03-11T02:36:25.638Z,99.90
2018-03-11T02:40:28.619Z,99.90
2018-03-11T02:44:31.921Z,99.90
2018-03-11T02:48:35.215Z,99.90
2018-03-11T02:52:38.512Z,99.90
2018-03-11T02:56:41.464Z,99.90
2018-03-11T03:00:44.398Z,99.90
2018-03-11T03:04:47.357Z,99.90
2018-03-11T03:08:50.294Z,99.90
2018-03-11T03:12:53.231Z,99.90
2018-03-11T03:16:56.148Z,99.90
2018-03-11T03:20:59.129Z,99.90
2018-03-11T03:25:02.424Z,99.90
2018-03-11T03:29:05.727Z,99.90
2018-03-11T03:33:08.274Z,99.90
2018-03-11T03:37:11.307Z,99.90
2018-03-11T03:41:21.634Z,99.90
2018-03-11T03:45:24.177Z,99.90
2018-03-11T03:49:27.107Z,99.90
2018-03-11T03:53:30.428Z,99.90
2018-03-11T03:57:33.336Z,99.90
2018-03-11T04:01:37.687Z,99.90
2018-03-11T04:05:40.224Z,99.90
2018-03-11T04:09:43.173Z,99.90
2018-03-11T04:13:46.088Z,99.90
2018-03-11T04:17:49.782Z,99.90
2018-03-11T04:21:53.191Z,99.90
2018-03-11T04:25:56.508Z,99.90
2018-03-11T04:29:59.030Z,99.90
2018-03-11T04:34:02.358Z,99.90
2018-03-11T04:38:05.290Z,99.90
2018-03-11T04:42:10.738Z,99.90
2018-03-11T04:46:13.272Z,99.90
2018-03-11T04:50:16.220Z,99.90
2018-03-11T04:54:19.142Z,99.90
2018-03-11T04:58:21.697Z,99.90
2018-03-11T05:02:24.622Z,99.90
2018-03-11T05:06:27.591Z,99.90
2018-03-11T05:10:30.122Z,99.90
2018-03-11T05:14:33.075Z,99.90
2018-03-11T05:18:36.016Z,99.90
2018-03-11T05:22:39.033Z,99.90
2018-03-11T05:26:42.325Z,99.90
2018-03-11T05:30:45.268Z,99.90
2018-03-11T05:34:48.560Z,99.90
2018-03-11T05:38:51.334Z,99.90
2018-03-11T05:42:54.266Z,99.90
2018-03-11T05:46:56.816Z,99.90
2018-03-11T05:51:00.100Z,99.90
2018-03-11T05:55:03.488Z,99.90
2018-03-11T05:59:06.404Z,99.90
2018-03-11T06:03:08.957Z,99.90
2018-03-11T06:07:13.845Z,99.90
2018-03-11T06:11:17.151Z,99.90
2018-03-11T06:15:20.452Z,99.90
2018-03-11T06:19:22.992Z,99.90
2018-03-11T06:23:25.915Z,99.90
2018-03-11T06:27:29.224Z,99.90
2018-03-11T06:31:31.741Z,99.90
2018-03-11T06:35:35.171Z,99.90
2018-03-11T06:39:38.473Z,99.90
2018-03-11T06:43:41.433Z,99.90
2018-03-11T06:47:43.945Z,99.90
2018-03-11T06:51:46.930Z,99.90
2018-03-11T06:55:51.482Z,99.90
2018-03-11T06:59:54.809Z,99.90
2018-03-11T07:03:58.092Z,99.90
2018-03-11T07:08:01.071Z,99.90
2018-03-11T07:12:03.996Z,99.90
2018-03-11T07:16:06.544Z,99.90
2018-03-11T07:20:09.866Z,99.90
2018-03-11T07:24:12.822Z,99.90
2018-03-11T07:28:16.130Z,99.90
2018-03-11T07:32:18.677Z,99.90
2018-03-11T07:36:21.967Z,99.90
2018-03-11T07:40:24.926Z,99.90
2018-03-11T07:44:27.858Z,99.90
2018-03-11T07:48:31.557Z,99.90
2018-03-11T07:52:34.858Z,99.90
2018-03-11T07:56:38.276Z,99.90
2018-03-11T08:00:47.095Z,99.90
2018-03-11T08:04:50.057Z,99.90
2018-03-11T08:08:53.001Z,99.90
2018-03-11T08:12:56.050Z,99.90
2018-03-11T08:16:58.596Z,99.90
2018-03-11T08:21:01.563Z,99.90
2018-03-11T08:25:04.922Z,99.90
2018-03-11T08:29:07.872Z,99.90
2018-03-11T08:33:10.805Z,99.20
2018-03-11T08:37:14.455Z,98.30
2018-03-11T08:41:17.371Z,97.90
2018-03-11T08:45:21.881Z,97.70
2018-03-11T08:49:25.184Z,97.70
2018-03-11T08:53:28.147Z,97.30
2018-03-11T08:57:31.454Z,97.10
2018-03-11T09:01:34.877Z,96.60
2018-03-11T09:05:37.817Z,97.00
2018-03-11T09:09:41.170Z,96.60
2018-03-11T09:13:44.089Z,96.50
2018-03-11T09:17:46.649Z,96.50
2018-03-11T09:21:49.937Z,96.50
2018-03-11T09:25:55.414Z,96.60
2018-03-11T09:30:04.416Z,96.60
2018-03-11T09:34:08.737Z,96.40
2018-03-11T09:38:12.016Z,95.20
2018-03-11T09:42:25.153Z,95.40
2018-03-11T09:46:27.683Z,95.50
2018-03-11T09:50:33.100Z,95.90
2018-03-11T09:54:36.611Z,95.50
2018-03-11T09:58:39.689Z,95.60
2018-03-11T10:02:45.278Z,95.80
2018-03-11T10:06:49.055Z,95.50
2018-03-11T10:10:55.446Z,94.90
2018-03-11T10:14:58.796Z,95.20
2018-03-11T10:19:01.725Z,95.70
2018-03-11T10:23:06.851Z,95.40
2018-03-11T10:27:09.853Z,95.70
2018-03-11T10:31:13.213Z,96.10
2018-03-11T10:35:17.776Z,96.20
2018-03-11T10:39:20.801Z,95.60
2018-03-11T10:43:25.120Z,95.60
2018-03-11T10:47:28.131Z,95.40
2018-03-11T10:51:31.072Z,95.30
2018-03-11T10:55:34.301Z,95.20
2018-03-11T10:59:37.649Z,96.10
2018-03-11T11:04:02.244Z,96.80
2018-03-11T11:08:08.697Z,96.30
2018-03-11T11:12:12.078Z,96.20
2018-03-11T11:16:17.432Z,96.20
2018-03-11T11:20:21.158Z,96.50
2018-03-11T11:24:33.974Z,96.60
2018-03-11T11:28:41.089Z,96.80
2018-03-11T11:32:44.005Z,97.20
2018-03-11T11:36:47.356Z,97.70
2018-03-11T11:40:51.654Z,97.60
2018-03-11T11:45:03.269Z,97.60
2018-03-11T11:49:06.228Z,97.50
2018-03-11T11:53:08.802Z,97.60
2018-03-11T11:59:36.577Z,97.70
2018-03-11T12:03:40.387Z,97.40
2018-03-11T12:07:42.968Z,97.60
2018-03-11T12:11:45.503Z,97.60
2018-03-11T12:15:48.213Z,97.70
2018-03-11T12:19:51.712Z,97.20
2018-03-11T12:23:55.164Z,96.50
2018-03-11T12:27:57.747Z,96.50
2018-03-11T12:32:00.410Z,96.30
2018-03-11T12:36:02.983Z,96.60
2018-03-11T12:40:05.940Z,96.50
2018-03-11T12:44:08.516Z,96.30
2018-03-11T12:48:11.829Z,96.00
2018-03-11T12:52:14.475Z,95.70
2018-03-11T12:56:17.185Z,95.90
2018-03-11T13:00:19.739Z,96.50
2018-03-11T13:04:23.053Z,96.20
2018-03-11T13:08:27.564Z,96.20
2018-03-11T13:12:31.161Z,96.80
2018-03-11T13:16:33.702Z,95.60
2018-03-11T13:20:48.035Z,95.70
2018-03-11T13:24:51.340Z,95.60
2018-03-11T13:28:54.019Z,95.60
2018-03-11T13:33:09.750Z,95.30
2018-03-11T13:37:15.610Z,94.90
2018-03-11T13:41:18.142Z,95.50
2018-03-11T13:45:32.436Z,95.30
2018-03-11T13:49:35.754Z,95.30
2018-03-11T13:53:50.260Z,95.30
2018-03-11T13:58:20.358Z,94.80
2018-03-11T14:02:23.018Z,94.70
2018-03-11T14:06:26.329Z,94.00
2018-03-11T14:10:28.903Z,94.00
2018-03-11T14:14:31.428Z,93.30
2018-03-11T14:18:36.031Z,93.10
2018-03-11T14:22:38.672Z,93.40
2018-03-11T14:26:41.325Z,93.30
2018-03-11T14:30:43.854Z,93.40
2018-03-11T14:34:46.532Z,92.80
2018-03-11T14:38:49.835Z,93.00
2018-03-11T14:42:52.389Z,93.00
2018-03-11T14:46:54.933Z,93.30
2018-03-11T14:50:57.569Z,93.10
2018-03-11T14:55:00.097Z,93.50
2018-03-11T14:59:02.669Z,93.10
2018-03-11T15:03:05.191Z,93.30
2018-03-11T15:07:08.746Z,93.40
2018-03-11T15:11:13.256Z,93.40
2018-03-11T15:15:15.838Z,93.70
2018-03-11T15:19:18.373Z,93.20
2018-03-11T16:00:35.517Z,92.70
2018-03-11T16:04:39.809Z,92.70
2018-03-11T16:08:43.518Z,93.00
2018-03-11T16:12:48.081Z,93.00
2018-03-11T16:16:50.652Z,92.90
2018-03-11T16:20:53.202Z,92.80
2018-03-11T16:24:56.917Z,92.90
2018-03-11T16:28:59.432Z,92.90
2018-03-11T16:33:02.410Z,92.90
2018-03-11T16:37:04.947Z,93.30
2018-03-11T16:41:07.486Z,92.90
2018-03-11T16:45:11.970Z,92.90
2018-03-11T16:49:15.916Z,92.60
2018-03-11T16:53:18.436Z,92.50
2018-03-11T16:57:21.153Z,92.50
2018-03-11T17:01:23.679Z,92.50
2018-03-11T17:05:32.691Z,92.50
2018-03-11T17:09:35.976Z,92.60
2018-03-11T17:13:38.777Z,92.60
2018-03-11T17:17:43.115Z,93.00
2018-03-11T17:21:46.735Z,93.00
2018-03-11T17:25:50.224Z,93.10
2018-03-11T17:29:52.879Z,93.20
2018-03-11T17:33:56.383Z,93.20
2018-03-11T17:38:03.830Z,93.20
2018-03-11T17:42:08.153Z,93.40
2018-03-11T17:46:11.824Z,93.40
2018-03-11T17:50:17.040Z,94.10
2018-03-11T17:54:21.416Z,94.80
2018-03-11T17:58:23.999Z,94.70
2018-03-11T18:02:26.564Z,95.30
2018-03-11T18:06:29.141Z,95.50
2018-03-11T18:10:36.798Z,95.70
2018-03-11T18:14:39.399Z,95.70
2018-03-11T18:18:42.377Z,95.70
2018-03-11T18:22:44.914Z,95.80
2018-03-11T18:26:52.820Z,96.00
2018-03-11T18:30:57.139Z,96.20
2018-03-11T18:34:59.825Z,96.20
2018-03-11T18:39:06.048Z,96.40
2018-03-11T18:43:09.615Z,96.30
2018-03-11T18:47:12.920Z,96.70
2018-03-11T18:51:15.489Z,96.50
2018-03-11T18:55:18.015Z,96.90
2018-03-11T18:59:20.816Z,96.80
2018-03-11T19:03:23.360Z,96.90
2018-03-11T19:07:25.954Z,97.50
2018-03-11T19:11:29.741Z,97.90
2018-03-11T19:15:32.300Z,97.80
2018-03-11T19:19:34.832Z,97.70
2018-03-11T19:23:41.267Z,97.30
2018-03-11T19:27:43.818Z,97.30
2018-03-11T19:31:51.145Z,97.60
2018-03-11T19:35:54.447Z,97.80
2018-03-11T19:39:57.941Z,97.80
2018-03-11T19:44:00.470Z,98.00
2018-03-11T19:48:03.128Z,98.10
2018-03-11T19:52:06.602Z,98.40
2018-03-11T19:56:09.278Z,98.40
2018-03-11T20:00:13.850Z,98.40
2018-03-11T20:04:21.518Z,98.20
2018-03-11T20:08:26.865Z,98.20
2018-03-11T20:12:30.419Z,98.10
2018-03-11T20:16:33.711Z,98.20
2018-03-11T20:20:36.260Z,98.20
2018-03-11T20:24:38.783Z,98.10
2018-03-11T20:28:42.482Z,98.20
2018-03-11T20:32:46.019Z,98.20
2018-03-11T20:36:49.528Z,98.20
2018-03-11T20:40:52.048Z,98.20
2018-03-11T20:44:55.372Z,98.30
2018-03-11T20:49:00.658Z,98.50
2018-03-11T20:53:07.794Z,98.50
2018-03-11T20:57:10.384Z,98.70
2018-03-11T21:01:13.038Z,98.30
2018-03-11T21:05:15.561Z,98.60
2018-03-11T21:09:18.128Z,98.30
2018-03-11T21:13:20.664Z,98.70
2018-03-11T21:17:23.215Z,98.40
2018-03-11T21:21:25.740Z,98.50
2018-03-11T21:25:28.320Z,98.50
2018-03-11T21:29:31.879Z,98.70
2018-03-11T21:33:34.708Z,98.70
2018-03-11T21:37:39.173Z,98.80
2018-03-11T21:41:41.712Z,98.50
2018-03-11T21:45:46.934Z,97.80
2018-03-11T21:49:49.498Z,97.80
2018-03-11T21:53:52.041Z,98.10
2018-03-11T21:57:54.895Z,99.90
2018-03-11T22:01:57.413Z,99.50
2018-03-11T22:06:01.121Z,99.00
2018-03-11T22:10:03.710Z,99.00
2018-03-11T22:14:06.652Z,99.00
2018-03-11T22:18:09.960Z,99.40
2018-03-11T22:22:12.530Z,99.40
2018-03-11T22:26:15.049Z,99.30
2018-03-11T22:30:17.712Z,99.00
2018-03-11T22:34:20.242Z,99.00
2018-03-11T22:38:22.798Z,99.10
2018-03-11T22:42:25.361Z,99.00
2018-03-11T22:46:28.015Z,99.00
2018-03-11T22:50:30.538Z,99.10
2018-03-11T22:54:33.084Z,99.60
2018-03-11T22:58:42.008Z,99.30
2018-03-11T23:02:44.568Z,99.20
2018-03-11T23:06:47.096Z,98.70
2018-03-11T23:10:50.409Z,99.10
2018-03-11T23:14:52.923Z,99.00
2018-03-11T23:19:09.211Z,99.30
2018-03-11T23:23:11.733Z,99.20
2018-03-11T23:27:14.280Z,99.00
2018-03-11T23:31:17.591Z,99.30
2018-03-11T23:35:20.339Z,99.30
2018-03-11T23:39:22.860Z,99.30
2018-03-11T23:43:25.400Z,99.60
2018-03-11T23:47:27.925Z,99.70
2018-03-11T23:51:31.258Z,99.60
2018-03-11T23:55:33.786Z,99.60
2018-03-11T23:59:36.340Z,99.30
